Time;durP1;ratioP1;P1;durP2;ratioP2;P2;SDS_P1;SDS_P2;PMS_P1;PMS_P2;Temp;Humidity;BMP_temperature;BMP_pressure;BME280_temperature;BME280_humidity;BME280_pressure;Samples;Min_cycle;Max_cycle;Signal;HPM_P1;HPM_P2
2021/10/09 00:00:22;;;;;;;;;;;;;;;;;;5066566;28;19909;-64
2021/10/09 00:02:48;;;;;;;;;;;;;;;;;;5066674;28;19984;-65
2021/10/09 00:05:14;;;;;;;;;;;;;;;;;;5066263;28;20007;-65
2021/10/09 00:07:40;;;;;;;;;;;;;;;;;;5066653;28;19909;-65
2021/10/09 00:10:07;;;;;;;;;;;;;;;;;;5066534;28;20016;-65
2021/10/09 00:12:33;;;;;;;;;;;;;;;;;;5066337;28;19916;-70
2021/10/09 00:14:59;;;;;;;;;;;;;;;;;;5065110;28;19909;-65
2021/10/09 00:17:25;;;;;;;;;;;;;;;;;;5066352;28;19909;-65
2021/10/09 00:19:51;;;;;;;;;;;;;;;;;;5068470;28;19913;-65
2021/10/09 00:22:17;;;;;;;;;;;;;;;;;;5070226;28;19909;-65
2021/10/09 00:24:43;;;;;;;;;;;;;;;;;;5069968;28;20299;-64
2021/10/09 00:27:09;;;;;;;;;;;;;;;;;;5069918;28;19908;-65
2021/10/09 00:29:35;;;;;;;;;;;;;;;;;;5069878;28;19967;-66
2021/10/09 00:32:01;;;;;;;;;;;;;;;;;;5069997;28;19913;-65
2021/10/09 00:34:27;;;;;;;;;;;;;;;;;;5069996;28;19976;-65
2021/10/09 00:36:53;;;;;;;;;;;;;;;;;;5069779;28;20363;-64
2021/10/09 00:39:19;;;;;;;;;;;;;;;;;;5069995;28;19909;-65
2021/10/09 00:41:44;;;;;;;;;;;;;;;;;;5069756;28;19915;-64
2021/10/09 00:44:10;;;;;;;;;;;;;;;;;;5069546;28;19909;-65
2021/10/09 00:46:36;;;;;;;;;;;;;;;;;;5069198;28;19939;-66
2021/10/09 00:49:02;;;;;;;;;;;;;;;;;;5069552;28;19955;-65
2021/10/09 00:51:28;;;;;;;;;;;;;;;;;;5069539;28;19916;-65
2021/10/09 00:53:54;;;;;;;;;;;;;;;;;;5069220;28;19909;-65
2021/10/09 00:56:20;;;;;;;;;;;;;;;;;;5069773;28;19968;-65
2021/10/09 00:58:46;;;;;;;;;;;;;;;;;;5069325;28;20019;-65
2021/10/09 01:01:12;;;;;;;;;;;;;;;;;;5069465;28;19913;-65
2021/10/09 01:03:38;;;;;;;;;;;;;;;;;;5069247;28;19913;-65
2021/10/09 01:06:04;;;;;;;;;;;;;;;;;;5069048;28;19912;-65
2021/10/09 01:08:30;;;;;;;;;;;;;;;;;;5068905;28;20321;-65
2021/10/09 01:10:55;;;;;;;;;;;;;;;;;;5069766;28;19924;-65
2021/10/09 01:13:21;;;;;;;;;;;;;;;;;;5069062;28;19913;-66
2021/10/09 01:15:47;;;;;;;;;;;;;;;;;;5069088;28;19909;-65
2021/10/09 01:18:13;;;;;;;;;;;;;;;;;;5068804;28;19909;-65
2021/10/09 01:20:39;;;;;;;;;;;;;;;;;;5069422;28;19909;-65
2021/10/09 01:23:05;;;;;;;;;;;;;;;;;;5069086;28;19916;-65
2021/10/09 01:25:31;;;;;;;;;;;;;;;;;;5068710;28;19968;-65
2021/10/09 01:27:57;;;;;;;;;;;;;;;;;;5068722;28;19980;-65
2021/10/09 01:30:23;;;;;;;;;;;;;;;;;;5068106;28;19924;-65
2021/10/09 01:32:49;;;;;;;;;;;;;;;;;;5068582;28;19920;-65
2021/10/09 01:35:15;;;;;;;;;;;;;;;;;;5068597;28;19959;-69
2021/10/09 01:37:41;;;;;;;;;;;;;;;;;;5068591;28;19912;-67
2021/10/09 01:40:07;;;;;;;;;;;;;;;;;;5068800;28;20318;-65
2021/10/09 01:42:33;;;;;;;;;;;;;;;;;;5068702;28;19909;-65
2021/10/09 01:44:59;;;;;;;;;;;;;;;;;;5068510;28;19924;-65
2021/10/09 01:47:25;;;;;;;;;;;;;;;;;;5068970;28;19909;-65
2021/10/09 01:49:51;;;;;;;;;;;;;;;;;;5068439;28;20279;-65
2021/10/09 01:52:16;;;;;;;;;;;;;;;;;;5068903;28;19968;-64
2021/10/09 01:54:42;;;;;;;;;;;;;;;;;;5068198;28;19913;-65
2021/10/09 01:57:08;;;;;;;;;;;;;;;;;;5068181;28;19976;-65
2021/10/09 01:59:34;;;;;;;;;;;;;;;;;;5068093;28;19913;-65
2021/10/09 02:02:00;;;;;;;;;;;;;;;;;;5068146;28;19909;-65
2021/10/09 02:04:27;;;;;;;;;;;;;;;;;;5068040;28;19948;-64
2021/10/09 02:06:53;;;;;;;;;;;;;;;;;;5068114;28;19913;-65
2021/10/09 02:09:19;;;;;;;;;;;;;;;;;;5068502;28;19916;-64
2021/10/09 02:11:48;;;;;;;;;;;;;;;;;;5067843;28;19916;-64
2021/10/09 02:14:30;;;;;;;;;;;;;;;;;;5067894;28;19999;-65
2021/10/09 02:17:51;;;;;;;;;;;;;;;;;;5068231;28;20300;-65
2021/10/09 02:27:52;;;;;;;;;;;;;;;;;;5067778;28;19931;-65
2021/10/09 02:30:18;;;;;;;;;;;;;;;;;;5067273;28;19938;-65
2021/10/09 02:32:44;;;;;;;;;;;;;;;;;;5067524;28;19909;-65
2021/10/09 02:35:10;;;;;;;;;;;;;;;;;;5067433;28;19951;-64
2021/10/09 02:37:36;;;;;;;;;;;;;;;;;;5066102;28;19908;-67
2021/10/09 02:40:02;;;;;;;;;;;;;;;;;;5067262;28;19967;-64
2021/10/09 02:42:28;;;;;;;;;;;;;;;;;;5066925;28;19935;-64
2021/10/09 02:44:54;;;;;;;;;;;;;;;;;;5067408;28;20358;-65
2021/10/09 02:47:20;;;;;;;;;;;;;;;;;;5067303;28;20000;-65
2021/10/09 02:49:46;;;;;;;;;;;;;;;;;;5067784;28;20011;-65
2021/10/09 02:52:12;;;;;;;;;;;;;;;;;;5067319;28;19913;-68
2021/10/09 02:54:37;;;;;;;;;;;;;;;;;;5067095;28;19913;-70
2021/10/09 02:57:03;;;;;;;;;;;;;;;;;;5067160;28;19909;-65
2021/10/09 02:59:29;;;;;;;;;;;;;;;;;;5067033;28;20382;-65
2021/10/09 03:01:55;;;;;;;;;;;;;;;;;;5066949;28;19915;-65
2021/10/09 03:04:21;;;;;;;;;;;;;;;;;;5066819;28;20375;-65
2021/10/09 03:06:47;;;;;;;;;;;;;;;;;;5066651;28;19912;-68
2021/10/09 03:09:13;;;;;;;;;;;;;;;;;;5067192;28;20386;-65
2021/10/09 03:11:39;;;;;;;;;;;;;;;;;;5067395;28;19909;-64
2021/10/09 03:14:06;;;;;;;;;;;;;;;;;;5066980;28;19909;-65
2021/10/09 03:16:31;;;;;;;;;;;;;;;;;;5066606;28;19912;-65
2021/10/09 03:18:57;;;;;;;;;;;;;;;;;;5066698;28;19931;-64
2021/10/09 03:21:23;;;;;;;;;;;;;;;;;;5066629;28;19909;-68
2021/10/09 03:23:49;;;;;;;;;;;;;;;;;;5066610;28;19940;-70
2021/10/09 03:26:15;;;;;;;;;;;;;;;;;;5066656;28;19919;-65
2021/10/09 03:28:41;;;;;;;;;;;;;;;;;;5066758;28;19936;-64
2021/10/09 03:31:07;;;;;;;;;;;;;;;;;;5066584;28;19924;-65
2021/10/09 03:33:33;;;;;;;;;;;;;;;;;;5066431;28;19916;-65
2021/10/09 03:35:59;;;;;;;;;;;;;;;;;;5066787;28;20051;-64
2021/10/09 03:38:25;;;;;;;;;;;;;;;;;;5066546;28;19909;-65
2021/10/09 03:40:58;;;;;;;;;;;;;;;;;;5066717;28;19926;-65
2021/10/09 03:43:25;;;;;;;;;;;;;;;;;;5066764;28;19909;-64
2021/10/09 03:46:17;;;;;;;;;;;;;;;;;;5066474;28;19921;-64
2021/10/09 03:53:48;;;;;;;;;;;;;;;;;;5067081;28;19916;-64
2021/10/09 03:56:14;;;;;;;;;;;;;;;;;;5070526;28;19909;-64
2021/10/09 03:58:40;;;;;;;;;;;;;;;;;;5070535;28;19917;-66
2021/10/09 04:01:05;;;;;;;;;;;;;;;;;;5070804;28;19909;-65
2021/10/09 04:03:31;;;;;;;;;;;;;;;;;;5070449;28;20401;-64
2021/10/09 04:05:57;;;;;;;;;;;;;;;;;;5070894;28;19917;-64
2021/10/09 04:08:23;;;;;;;;;;;;;;;;;;5070117;28;19958;-65
2021/10/09 04:10:49;;;;;;;;;;;;;;;;;;5052180;28;19909;-65
2021/10/09 04:13:15;;;;;;;;;;;;;;;;;;5070540;28;19908;-65
2021/10/09 04:15:41;;;;;;;;;;;;;;;;;;5070580;28;19926;-64
2021/10/09 04:18:07;;;;;;;;;;;;;;;;;;5070024;28;19909;-65
2021/10/09 04:20:34;;;;;;;;;;;;;;;;;;5070028;28;19968;-66
2021/10/09 04:23:00;;;;;;;;;;;;;;;;;;5070013;28;19909;-65
2021/10/09 04:25:26;;;;;;;;;;;;;;;;;;5070025;28;19979;-65
2021/10/09 04:27:51;;;;;;;;;;;;;;;;;;5070027;28;19912;-65
2021/10/09 04:30:17;;;;;;;;;;;;;;;;;;5069851;28;19939;-69
2021/10/09 04:32:43;;;;;;;;;;;;;;;;;;5069809;28;19909;-65
2021/10/09 04:35:09;;;;;;;;;;;;;;;;;;5069881;28;19994;-64
2021/10/09 04:37:35;;;;;;;;;;;;;;;;;;5069717;28;19909;-65
2021/10/09 04:40:01;;;;;;;;;;;;;;;;;;5069564;28;19972;-65
2021/10/09 04:42:27;;;;;;;;;;;;;;;;;;5069589;28;19962;-65
2021/10/09 04:44:53;;;;;;;;;;;;;;;;;;5069506;28;19909;-65
2021/10/09 04:47:19;;;;;;;;;;;;;;;;;;5069558;28;19908;-66
2021/10/09 04:49:45;;;;;;;;;;;;;;;;;;5069412;28;19909;-64
2021/10/09 04:52:11;;;;;;;;;;;;;;;;;;5069698;28;19912;-65
2021/10/09 04:54:37;;;;;;;;;;;;;;;;;;5070021;28;19948;-64
2021/10/09 04:57:03;;;;;;;;;;;;;;;;;;5069955;28;19909;-65
2021/10/09 04:59:29;;;;;;;;;;;;;;;;;;5069562;28;19938;-65
2021/10/09 05:01:54;;;;;;;;;;;;;;;;;;5069408;28;20289;-65
2021/10/09 05:04:20;;;;;;;;;;;;;;;;;;5069441;28;19959;-65
2021/10/09 05:06:46;;;;;;;;;;;;;;;;;;5068149;28;19913;-65
2021/10/09 05:09:12;;;;;;;;;;;;;;;;;;5069159;28;19909;-64
2021/10/09 05:11:38;;;;;;;;;;;;;;;;;;5069891;28;19909;-65
2021/10/09 05:14:04;;;;;;;;;;;;;;;;;;5069613;28;19909;-65
2021/10/09 05:16:30;;;;;;;;;;;;;;;;;;5069049;28;19909;-67
2021/10/09 05:18:56;;;;;;;;;;;;;;;;;;5068898;28;19909;-66
2021/10/09 05:21:22;;;;;;;;;;;;;;;;;;5068759;28;19952;-65
2021/10/09 05:23:48;;;;;;;;;;;;;;;;;;5070768;28;19972;-65
2021/10/09 05:26:14;;;;;;;;;;;;;;;;;;5068838;28;20333;-65
2021/10/09 05:31:11;;;;;;;;;;;;;;;;;;5068635;28;19939;-65
2021/10/09 05:33:38;;;;;;;;;;;;;;;;;;5068752;28;19909;-66
2021/10/09 05:36:04;;;;;;;;;;;;;;;;;;5068589;28;19916;-65
2021/10/09 05:38:30;;;;;;;;;;;;;;;;;;5068835;28;19909;-65
2021/10/09 05:40:57;;;;;;;;;;;;;;;;;;5068443;28;19924;-64
2021/10/09 05:43:23;;;;;;;;;;;;;;;;;;5068951;28;19916;-65
2021/10/09 05:45:49;;;;;;;;;;;;;;;;;;5069351;28;19956;-65
2021/10/09 05:48:15;;;;;;;;;;;;;;;;;;5068502;28;19931;-64
2021/10/09 06:30:57;;;;;;;;;;;;;;;;;;5036645;28;20363;-65
2021/10/09 06:47:49;;;;;;;;;;;;;;;;;;5067384;28;19909;-65
2021/10/09 07:01:10;;;;;;;;;;;;;;;;;;5067279;28;19916;-66
2021/10/09 07:03:36;;;;;;;;;;;;;;;;;;5067114;28;19909;-66
2021/10/09 07:06:02;;;;;;;;;;;;;;;;;;5067036;28;20394;-65
2021/10/09 07:08:28;;;;;;;;;;;;;;;;;;5066835;28;19932;-65
2021/10/09 07:10:53;;;;;;;;;;;;;;;;;;5067104;28;19909;-65
2021/10/09 07:13:19;;;;;;;;;;;;;;;;;;5066927;28;19958;-66
2021/10/09 07:15:45;;;;;;;;;;;;;;;;;;5066771;28;19908;-65
2021/10/09 07:18:13;;;;;;;;;;;;;;;;;;5066847;28;19935;-65
2021/10/09 07:20:39;;;;;;;;;;;;;;;;;;5066739;28;19967;-68
2021/10/09 07:23:05;;;;;;;;;;;;;;;;;;5067079;28;19909;-68
2021/10/09 07:25:31;;;;;;;;;;;;;;;;;;5066842;28;19989;-65
2021/10/09 07:27:57;;;;;;;;;;;;;;;;;;5066785;28;19909;-65
2021/10/09 07:30:23;;;;;;;;;;;;;;;;;;5066378;28;19939;-65
2021/10/09 07:32:49;;;;;;;;;;;;;;;;;;5066683;28;20359;-64
2021/10/09 07:35:15;;;;;;;;;;;;;;;;;;5066760;28;19909;-67
2021/10/09 07:37:41;;;;;;;;;;;;;;;;;;5066713;28;19928;-65
2021/10/09 07:40:07;;;;;;;;;;;;;;;;;;5066807;28;19980;-65
2021/10/09 07:42:33;;;;;;;;;;;;;;;;;;5066739;28;19909;-65
2021/10/09 07:44:59;;;;;;;;;;;;;;;;;;5066471;28;19909;-65
2021/10/09 07:47:25;;;;;;;;;;;;;;;;;;5066643;28;19916;-64
2021/10/09 07:49:51;;;;;;;;;;;;;;;;;;5066613;28;19909;-65
2021/10/09 07:52:17;;;;;;;;;;;;;;;;;;5066555;28;19909;-65
2021/10/09 07:54:43;;;;;;;;;;;;;;;;;;5066499;28;19911;-65
2021/10/09 07:57:08;;;;;;;;;;;;;;;;;;5066576;28;19956;-65
2021/10/09 07:59:34;;;;;;;;;;;;;;;;;;5066286;28;19927;-65
2021/10/09 08:02:00;;;;;;;;;;;;;;;;;;5066422;28;19916;-65
2021/10/09 08:04:29;;;;;;;;;;;;;;;;;;5066397;28;19908;-65
2021/10/09 08:06:55;;;;;;;;;;;;;;;;;;5066878;28;19920;-65
2021/10/09 08:09:21;;;;;;;;;;;;;;;;;;5066574;28;19909;-65
2021/10/09 08:11:47;;;;;;;;;;;;;;;;;;5066336;28;19963;-65
2021/10/09 08:14:18;;;;;;;;;;;;;;;;;;5066300;28;19924;-71
2021/10/09 08:16:44;;;;;;;;;;;;;;;;;;5067528;28;19968;-65
2021/10/09 08:19:10;;;;;;;;;;;;;;;;;;5066326;28;19909;-65
2021/10/09 08:21:40;;;;;;;;;;;;;;;;;;5066151;28;19909;-65
2021/10/09 08:40:12;;;;;;;;;;;;;;;;;;5066201;28;19935;-68
2021/10/09 08:42:38;;;;;;;;;;;;;;;;;;5069106;28;19909;-65
2021/10/09 08:45:04;;;;;;;;;;;;;;;;;;5069955;28;20452;-65
2021/10/09 08:47:33;;;;;;;;;;;;;;;;;;5069543;28;19908;-65
2021/10/09 08:49:59;;;;;;;;;;;;;;;;;;5070457;28;19984;-65
2021/10/09 08:52:26;;;;;;;;;;;;;;;;;;5069401;28;19909;-64
2021/10/09 08:54:52;;;;;;;;;;;;;;;;;;5069284;28;19916;-65
2021/10/09 08:57:21;;;;;;;;;;;;;;;;;;5069120;28;19909;-65
2021/10/09 08:59:48;;;;;;;;;;;;;;;;;;5069445;28;19913;-65
2021/10/09 09:02:27;;;;;;;;;;;;;;;;;;5069236;28;19908;-65
2021/10/09 09:27:31;;;;;;;;;;;;;;;;;;5069038;28;19924;-70
2021/10/09 09:35:42;;;;;;;;;;;;;;;;;;5037517;28;19909;-65
2021/10/09 09:40:53;;;;;;;;;;;;;;;;;;5068515;28;19923;-65
2021/10/09 09:43:19;;;;;;;;;;;;;;;;;;5068461;28;19909;-65
2021/10/09 09:45:45;;;;;;;;;;;;;;;;;;5068426;28;20279;-66
2021/10/09 09:48:11;;;;;;;;;;;;;;;;;;5067330;28;19915;-67
2021/10/09 09:50:37;;;;;;;;;;;;;;;;;;5068557;28;19931;-64
2021/10/09 09:53:03;;;;;;;;;;;;;;;;;;5067738;28;19909;-66
2021/10/09 09:55:29;;;;;;;;;;;;;;;;;;5068110;28;19930;-66
2021/10/09 09:57:55;;;;;;;;;;;;;;;;;;5068242;28;19916;-66
2021/10/09 10:00:21;;;;;;;;;;;;;;;;;;5067987;28;20255;-66
2021/10/09 10:02:47;;;;;;;;;;;;;;;;;;5067938;28;19940;-66
2021/10/09 10:05:13;;;;;;;;;;;;;;;;;;5067767;28;20398;-65
2021/10/09 10:07:39;;;;;;;;;;;;;;;;;;5068209;28;19909;-65
2021/10/09 10:10:05;;;;;;;;;;;;;;;;;;5067777;28;19909;-65
2021/10/09 10:12:31;;;;;;;;;;;;;;;;;;5067923;28;19967;-67
2021/10/09 10:14:57;;;;;;;;;;;;;;;;;;5067922;28;19976;-67
2021/10/09 10:17:23;;;;;;;;;;;;;;;;;;5067412;28;19908;-67
2021/10/09 10:19:49;;;;;;;;;;;;;;;;;;5068225;28;19913;-67
2021/10/09 10:22:15;;;;;;;;;;;;;;;;;;5069429;28;19916;-67
2021/10/09 10:24:41;;;;;;;;;;;;;;;;;;5067523;28;19909;-67
2021/10/09 10:27:07;;;;;;;;;;;;;;;;;;5067395;28;20352;-67
2021/10/09 10:29:33;;;;;;;;;;;;;;;;;;5067216;28;19913;-67
2021/10/09 10:31:59;;;;;;;;;;;;;;;;;;5067420;28;19915;-67
2021/10/09 10:34:25;;;;;;;;;;;;;;;;;;5067199;28;19962;-67
2021/10/09 10:36:51;;;;;;;;;;;;;;;;;;5066379;28;19912;-67
2021/10/09 10:39:21;;;;;;;;;;;;;;;;;;5067476;28;19948;-68
2021/10/09 10:42:00;;;;;;;;;;;;;;;;;;5067246;28;19923;-68
2021/10/09 10:44:26;;;;;;;;;;;;;;;;;;5067220;28;20359;-66
2021/10/09 10:46:55;;;;;;;;;;;;;;;;;;5066843;28;19917;-66
2021/10/09 10:49:35;;;;;;;;;;;;;;;;;;5066751;28;19923;-66
2021/10/09 10:56:53;;;;;;;;;;;;;;;;;;5065945;28;19931;-75
2021/10/09 10:59:19;;;;;;;;;;;;;;;;;;5066441;28;19944;-68
2021/10/09 11:01:48;;;;;;;;;;;;;;;;;;5067852;28;20394;-66
2021/10/09 11:04:16;;;;;;;;;;;;;;;;;;5066019;28;19935;-67
2021/10/09 11:06:42;;;;;;;;;;;;;;;;;;5066427;28;20272;-67
2021/10/09 11:09:08;;;;;;;;;;;;;;;;;;5066290;28;19916;-67
2021/10/09 11:11:34;;;;;;;;;;;;;;;;;;5067655;28;19909;-67
2021/10/09 11:14:03;;;;;;;;;;;;;;;;;;5067038;28;19909;-67
2021/10/09 11:16:29;;;;;;;;;;;;;;;;;;5066329;28;19913;-67
2021/10/09 11:18:55;;;;;;;;;;;;;;;;;;5066422;28;19916;-67
2021/10/09 11:21:21;;;;;;;;;;;;;;;;;;5066430;28;19909;-66
2021/10/09 11:23:47;;;;;;;;;;;;;;;;;;5067486;28;19940;-67
2021/10/09 11:26:13;;;;;;;;;;;;;;;;;;5065888;28;19920;-66
2021/10/09 11:28:41;;;;;;;;;;;;;;;;;;5065893;28;19909;-75
2021/10/09 11:31:09;;;;;;;;;;;;;;;;;;5064041;28;19924;-66
2021/10/09 11:33:36;;;;;;;;;;;;;;;;;;5066639;28;19908;-68
2021/10/09 11:36:03;;;;;;;;;;;;;;;;;;5066188;28;19964;-67
2021/10/09 11:38:29;;;;;;;;;;;;;;;;;;5064865;28;19909;-66
2021/10/09 11:40:59;;;;;;;;;;;;;;;;;;5065200;28;19909;-66
2021/10/09 11:43:30;;;;;;;;;;;;;;;;;;5063868;28;20002;-73
2021/10/09 11:46:12;;;;;;;;;;;;;;;;;;5055967;28;19920;-71
2021/10/09 11:54:21;;;;;;;;;;;;;;;;;;5057202;28;20050;-73
2021/10/09 11:56:47;;;;;;;;;;;;;;;;;;5056751;28;19909;-68
2021/10/09 11:59:13;;;;;;;;;;;;;;;;;;5056780;28;19939;-72
2021/10/09 12:01:39;;;;;;;;;;;;;;;;;;5057612;28;19916;-70
2021/10/09 12:04:06;;;;;;;;;;;;;;;;;;5057342;28;19909;-74
2021/10/09 12:06:32;;;;;;;;;;;;;;;;;;5057293;28;19921;-73
2021/10/09 12:09:00;;;;;;;;;;;;;;;;;;5058413;28;19909;-73
2021/10/09 12:11:26;;;;;;;;;;;;;;;;;;5057920;28;19932;-72
2021/10/09 12:13:52;;;;;;;;;;;;;;;;;;5064305;28;19920;-72
2021/10/09 12:16:18;;;;;;;;;;;;;;;;;;5066622;28;19909;-67
2021/10/09 12:18:43;;;;;;;;;;;;;;;;;;5068359;28;19909;-69
2021/10/09 12:21:28;;;;;;;;;;;;;;;;;;5067976;28;20367;-72
2021/10/09 12:23:54;;;;;;;;;;;;;;;;;;5065855;28;19916;-72
2021/10/09 12:26:20;;;;;;;;;;;;;;;;;;5067322;28;19916;-67
2021/10/09 12:28:46;;;;;;;;;;;;;;;;;;5064117;28;19916;-70
2021/10/09 12:31:14;;;;;;;;;;;;;;;;;;5053371;28;19928;-65
2021/10/09 12:33:40;;;;;;;;;;;;;;;;;;5048949;28;19917;-68
2021/10/09 12:36:06;;;;;;;;;;;;;;;;;;5048003;28;19916;-71
2021/10/09 12:38:32;;;;;;;;;;;;;;;;;;5056834;28;19917;-73
2021/10/09 12:40:58;;;;;;;;;;;;;;;;;;5046701;28;19917;-69
2021/10/09 12:43:25;;;;;;;;;;;;;;;;;;5045952;28;19913;-70
2021/10/09 12:45:51;;;;;;;;;;;;;;;;;;5055389;28;19923;-72
2021/10/09 12:48:18;;;;;;;;;;;;;;;;;;5043916;28;19949;-71
2021/10/09 12:50:44;;;;;;;;;;;;;;;;;;5044320;28;19956;-69
2021/10/09 12:53:09;;;;;;;;;;;;;;;;;;5044416;28;20275;-65
2021/10/09 12:55:35;;;;;;;;;;;;;;;;;;5056475;28;19915;-66
2021/10/09 12:58:01;;;;;;;;;;;;;;;;;;5052466;28;20399;-67
2021/10/09 13:00:27;;;;;;;;;;;;;;;;;;5047925;28;19909;-66
2021/10/09 13:02:53;;;;;;;;;;;;;;;;;;5056819;28;19916;-67
2021/10/09 13:05:19;;;;;;;;;;;;;;;;;;5068310;28;19917;-69
2021/10/09 13:07:46;;;;;;;;;;;;;;;;;;5069010;28;19916;-70
2021/10/09 13:10:12;;;;;;;;;;;;;;;;;;5068076;28;19913;-66
2021/10/09 13:12:38;;;;;;;;;;;;;;;;;;5062190;28;19913;-67
2021/10/09 13:15:11;;;;;;;;;;;;;;;;;;5048371;28;19910;-69
2021/10/09 13:17:37;;;;;;;;;;;;;;;;;;5050273;28;20434;-66
2021/10/09 13:20:05;;;;;;;;;;;;;;;;;;5047362;28;19913;-66
2021/10/09 13:22:31;;;;;;;;;;;;;;;;;;5060970;28;19959;-67
2021/10/09 13:24:57;;;;;;;;;;;;;;;;;;5065970;28;20347;-67
2021/10/09 13:27:23;;;;;;;;;;;;;;;;;;5061761;28;20367;-68
2021/10/09 13:29:49;;;;;;;;;;;;;;;;;;5066795;28;19921;-66
2021/10/09 13:32:14;;;;;;;;;;;;;;;;;;5066511;28;19963;-68
2021/10/09 13:34:40;;;;;;;;;;;;;;;;;;5066478;28;19909;-69
2021/10/09 13:37:06;;;;;;;;;;;;;;;;;;5061586;28;19965;-67
2021/10/09 13:39:32;;;;;;;;;;;;;;;;;;5052985;28;19921;-68
2021/10/09 13:41:58;;;;;;;;;;;;;;;;;;5067386;28;19948;-68
2021/10/09 13:44:24;;;;;;;;;;;;;;;;;;5067720;28;19908;-68
2021/10/09 13:46:50;;;;;;;;;;;;;;;;;;5068351;28;19939;-68
2021/10/09 13:49:16;;;;;;;;;;;;;;;;;;5068466;28;19936;-73
2021/10/09 13:51:42;;;;;;;;;;;;;;;;;;5066889;28;19913;-66
2021/10/09 13:54:08;;;;;;;;;;;;;;;;;;5065223;28;19975;-72
2021/10/09 13:56:35;;;;;;;;;;;;;;;;;;5054722;28;19960;-67
2021/10/09 13:59:01;;;;;;;;;;;;;;;;;;5046806;28;19909;-75
2021/10/09 14:01:29;;;;;;;;;;;;;;;;;;5056764;28;19970;-72
2021/10/09 14:03:55;;;;;;;;;;;;;;;;;;5050728;28;19913;-75
2021/10/09 14:06:21;;;;;;;;;;;;;;;;;;5044018;28;20025;-73
2021/10/09 14:08:48;;;;;;;;;;;;;;;;;;5045750;28;19916;-76
2021/10/09 14:11:14;;;;;;;;;;;;;;;;;;5048122;28;19948;-68
2021/10/09 14:13:40;;;;;;;;;;;;;;;;;;5056019;28;19920;-67
2021/10/09 14:16:10;;;;;;;;;;;;;;;;;;5057593;28;19935;-69
2021/10/09 14:18:36;;;;;;;;;;;;;;;;;;5067503;28;19909;-69
2021/10/09 14:21:02;;;;;;;;;;;;;;;;;;5067022;28;19913;-66
2021/10/09 14:23:28;;;;;;;;;;;;;;;;;;5066728;28;19916;-69
2021/10/09 14:25:54;;;;;;;;;;;;;;;;;;5066114;28;19912;-69
2021/10/09 14:28:20;;;;;;;;;;;;;;;;;;5066789;28;19909;-67
2021/10/09 14:30:46;;;;;;;;;;;;;;;;;;5058354;28;19921;-74
2021/10/09 14:33:12;;;;;;;;;;;;;;;;;;5050876;28;19923;-73
2021/10/09 14:35:38;;;;;;;;;;;;;;;;;;5064725;28;19948;-68
2021/10/09 14:38:04;;;;;;;;;;;;;;;;;;5054405;28;20394;-71
2021/10/09 14:40:29;;;;;;;;;;;;;;;;;;5057027;28;19913;-68
2021/10/09 14:42:55;;;;;;;;;;;;;;;;;;5060295;28;19920;-67
2021/10/09 14:45:22;;;;;;;;;;;;;;;;;;5064369;28;20202;-70
2021/10/09 15:19:57;;;;;;;;;;;;;;;;;;5048198;28;19935;-71
2021/10/09 15:22:23;;;;;;;;;;;;;;;;;;5060773;28;19951;-71
2021/10/09 15:24:51;;;;;;;;;;;;;;;;;;5049754;28;19913;-68
2021/10/09 15:27:17;;;;;;;;;;;;;;;;;;5042845;28;19988;-72
2021/10/09 15:29:43;;;;;;;;;;;;;;;;;;5038922;28;19965;-72
2021/10/09 15:32:09;;;;;;;;;;;;;;;;;;5061029;28;19916;-71
2021/10/09 15:34:39;;;;;;;;;;;;;;;;;;5062702;28;20278;-72
2021/10/09 15:37:05;;;;;;;;;;;;;;;;;;5050415;28;19913;-72
2021/10/09 15:39:31;;;;;;;;;;;;;;;;;;5022022;28;19971;-73
2021/10/09 15:41:56;;;;;;;;;;;;;;;;;;5050956;28;19919;-71
2021/10/09 15:44:22;;;;;;;;;;;;;;;;;;5047395;28;19967;-71
2021/10/09 15:46:48;;;;;;;;;;;;;;;;;;5051682;28;19917;-69
2021/10/09 15:49:14;;;;;;;;;;;;;;;;;;5027747;28;19913;-71
2021/10/09 15:51:40;;;;;;;;;;;;;;;;;;5042017;28;19931;-73
2021/10/09 15:54:06;;;;;;;;;;;;;;;;;;5042787;28;19949;-71
2021/10/09 15:56:32;;;;;;;;;;;;;;;;;;5046481;28;20379;-71
2021/10/09 15:58:59;;;;;;;;;;;;;;;;;;5062681;28;19960;-71
2021/10/09 16:01:27;;;;;;;;;;;;;;;;;;5063922;28;19915;-72
2021/10/09 16:03:56;;;;;;;;;;;;;;;;;;5060717;28;19908;-71
2021/10/09 16:06:22;;;;;;;;;;;;;;;;;;5043154;28;19917;-69
2021/10/09 16:08:48;;;;;;;;;;;;;;;;;;5042025;28;19931;-70
2021/10/09 16:11:16;;;;;;;;;;;;;;;;;;5359130;22;19934;-71
2021/10/09 16:13:42;;;;;;;;;;;;;;;;;;5019067;28;19933;-73
2021/10/09 16:16:12;;;;;;;;;;;;;;;;;;5021078;28;19909;-73
2021/10/09 16:18:38;;;;;;;;;;;;;;;;;;5007814;28;19932;-71
2021/10/09 16:21:03;;;;;;;;;;;;;;;;;;5004186;28;19909;-71
2021/10/09 16:23:30;;;;;;;;;;;;;;;;;;5022140;28;20261;-67
2021/10/09 16:25:56;;;;;;;;;;;;;;;;;;4998675;28;19921;-73
2021/10/09 16:28:22;;;;;;;;;;;;;;;;;;5004443;28;19914;-69
2021/10/09 16:30:48;;;;;;;;;;;;;;;;;;5015119;28;19952;-72
2021/10/09 16:33:14;;;;;;;;;;;;;;;;;;5014462;28;19909;-70
2021/10/09 16:35:40;;;;;;;;;;;;;;;;;;4987653;28;19914;-72
2021/10/09 16:38:06;;;;;;;;;;;;;;;;;;5014547;28;20131;-70
2021/10/09 16:40:32;;;;;;;;;;;;;;;;;;5010997;28;19920;-74
2021/10/09 16:42:58;;;;;;;;;;;;;;;;;;5007930;28;19909;-73
2021/10/09 16:45:24;;;;;;;;;;;;;;;;;;5019483;28;20457;-70
2021/10/09 16:47:50;;;;;;;;;;;;;;;;;;5003353;28;20003;-71
2021/10/09 16:50:16;;;;;;;;;;;;;;;;;;5006942;28;20375;-73
2021/10/09 16:52:42;;;;;;;;;;;;;;;;;;5006758;28;19914;-72
2021/10/09 16:55:08;;;;;;;;;;;;;;;;;;5016328;28;19910;-71
2021/10/09 16:57:34;;;;;;;;;;;;;;;;;;5004668;28;19914;-72
2021/10/09 17:00:00;;;;;;;;;;;;;;;;;;5012156;28;19909;-69
2021/10/09 17:02:26;;;;;;;;;;;;;;;;;;5003328;28;19917;-71
2021/10/09 17:04:55;;;;;;;;;;;;;;;;;;4985867;28;20376;-67
2021/10/09 17:07:21;;;;;;;;;;;;;;;;;;5001329;28;19925;-71
2021/10/09 17:09:53;;;;;;;;;;;;;;;;;;5009234;28;19992;-74
2021/10/09 17:12:19;;;;;;;;;;;;;;;;;;5023071;28;19921;-72
2021/10/09 17:14:45;;;;;;;;;;;;;;;;;;5024522;28;19913;-72
2021/10/09 17:17:11;;;;;;;;;;;;;;;;;;5005021;28;20383;-71
2021/10/09 17:19:37;;;;;;;;;;;;;;;;;;4991247;28;19914;-72
2021/10/09 17:22:02;;;;;;;;;;;;;;;;;;5002761;28;19914;-70
2021/10/09 17:24:28;;;;;;;;;;;;;;;;;;5023873;28;19913;-74
2021/10/09 17:26:54;;;;;;;;;;;;;;;;;;5020760;28;19920;-69
2021/10/09 17:29:20;;;;;;;;;;;;;;;;;;5007212;28;19914;-73
2021/10/09 17:31:46;;;;;;;;;;;;;;;;;;5012429;28;19913;-67
2021/10/09 17:34:12;;;;;;;;;;;;;;;;;;5033615;28;20369;-71
2021/10/09 17:36:38;;;;;;;;;;;;;;;;;;5021521;28;19955;-71
2021/10/09 17:39:04;;;;;;;;;;;;;;;;;;4999636;28;19953;-73
2021/10/09 17:41:30;;;;;;;;;;;;;;;;;;5014161;28;19921;-69
2021/10/09 17:43:56;;;;;;;;;;;;;;;;;;5003212;28;19910;-72
2021/10/09 17:46:22;;;;;;;;;;;;;;;;;;4999670;28;19920;-70
2021/10/09 17:48:48;;;;;;;;;;;;;;;;;;4999022;28;20025;-70
2021/10/09 17:51:21;;;;;;;;;;;;;;;;;;5003104;28;19914;-71
2021/10/09 17:53:47;;;;;;;;;;;;;;;;;;4980829;28;19916;-69
2021/10/09 17:56:13;;;;;;;;;;;;;;;;;;4998295;28;20012;-72
2021/10/09 17:58:39;;;;;;;;;;;;;;;;;;5017064;28;19936;-69
2021/10/09 18:01:05;;;;;;;;;;;;;;;;;;5017694;28;19917;-73
2021/10/09 18:03:31;;;;;;;;;;;;;;;;;;5017427;28;20452;-71
2021/10/09 18:05:57;;;;;;;;;;;;;;;;;;5000165;28;19980;-71
2021/10/09 18:08:23;;;;;;;;;;;;;;;;;;4999294;28;19943;-71
2021/10/09 18:10:49;;;;;;;;;;;;;;;;;;4999513;28;19977;-73
2021/10/09 18:13:15;;;;;;;;;;;;;;;;;;4997736;28;19948;-76
2021/10/09 18:15:41;;;;;;;;;;;;;;;;;;4998002;28;19910;-76
2021/10/09 18:18:07;;;;;;;;;;;;;;;;;;4998034;28;19949;-75
2021/10/09 18:20:33;;;;;;;;;;;;;;;;;;4998686;28;19921;-75
2021/10/09 18:22:59;;;;;;;;;;;;;;;;;;4998731;28;19960;-76
2021/10/09 18:25:25;;;;;;;;;;;;;;;;;;4998388;28;19925;-76
2021/10/09 18:27:52;;;;;;;;;;;;;;;;;;4997970;28;19909;-76
2021/10/09 18:30:17;;;;;;;;;;;;;;;;;;4998092;28;19910;-74
2021/10/09 18:32:43;;;;;;;;;;;;;;;;;;4998987;28;19960;-75
2021/10/09 18:35:09;;;;;;;;;;;;;;;;;;4998014;28;19909;-76
2021/10/09 18:37:35;;;;;;;;;;;;;;;;;;4997958;28;20299;-75
2021/10/09 18:40:02;;;;;;;;;;;;;;;;;;4999696;28;19910;-73
2021/10/09 18:42:29;;;;;;;;;;;;;;;;;;4999336;28;19910;-77
2021/10/09 18:44:55;;;;;;;;;;;;;;;;;;5000086;28;19910;-74
2021/10/09 18:47:20;;;;;;;;;;;;;;;;;;4999136;28;19920;-76
2021/10/09 18:49:46;;;;;;;;;;;;;;;;;;4995942;28;19956;-76
2021/10/09 18:52:12;;;;;;;;;;;;;;;;;;4998313;28;19910;-73
2021/10/09 18:54:38;;;;;;;;;;;;;;;;;;4996450;28;19910;-77
2021/10/09 18:57:04;;;;;;;;;;;;;;;;;;4998751;28;20017;-75
2021/10/09 18:59:30;;;;;;;;;;;;;;;;;;4996504;28;19933;-73
2021/10/09 19:01:56;;;;;;;;;;;;;;;;;;4997083;28;19910;-75
2021/10/09 19:04:22;;;;;;;;;;;;;;;;;;4998651;28;20387;-75
2021/10/09 19:06:48;;;;;;;;;;;;;;;;;;4997634;28;19913;-75
2021/10/09 19:09:19;;;;;;;;;;;;;;;;;;4997748;28;19910;-75
2021/10/09 19:11:44;;;;;;;;;;;;;;;;;;4996440;28;20395;-74
2021/10/09 19:14:10;;;;;;;;;;;;;;;;;;4998820;28;19914;-76
2021/10/09 19:16:36;;;;;;;;;;;;;;;;;;4997341;28;19910;-76
2021/10/09 19:19:02;;;;;;;;;;;;;;;;;;4996294;28;19917;-75
2021/10/09 19:21:28;;;;;;;;;;;;;;;;;;4995740;28;19934;-74
2021/10/09 19:23:55;;;;;;;;;;;;;;;;;;4995820;28;19949;-76
2021/10/09 19:26:20;;;;;;;;;;;;;;;;;;4994178;28;19949;-75
2021/10/09 19:28:46;;;;;;;;;;;;;;;;;;4995994;28;19917;-75
2021/10/09 19:31:12;;;;;;;;;;;;;;;;;;4995866;28;19913;-76